createdAt,value
2019-05-05T00:03:08.575Z,3.80
2019-05-05T00:07:10.646Z,4.23
2019-05-05T00:11:40.591Z,4.47
2019-05-05T00:16:00.128Z,4.90
2019-05-05T00:20:02.063Z,3.90
2019-05-05T00:24:04.678Z,4.53
2019-05-05T00:28:07.045Z,4.10
2019-05-05T00:32:08.954Z,3.70
2019-05-05T00:36:12.583Z,2.70
2019-05-05T00:40:15.862Z,6.73
2019-05-05T00:44:17.680Z,4.27
2019-05-05T00:48:35.950Z,6.13
2019-05-05T00:52:37.795Z,3.10
2019-05-05T00:56:40.153Z,6.57
2019-05-05T01:00:50.528Z,2.63
2019-05-05T01:05:14.877Z,3.83
2019-05-05T01:09:22.126Z,5.30
2019-05-05T01:13:24.586Z,4.83
2019-05-05T01:17:26.461Z,4.70
2019-05-05T01:21:28.340Z,3.07
2019-05-05T01:25:30.170Z,6.17
2019-05-05T01:29:31.990Z,4.13
2019-05-05T01:33:54.193Z,4.53
2019-05-05T01:38:01.893Z,7.47
2019-05-05T01:42:09.400Z,3.93
2019-05-05T01:46:11.237Z,3.93
2019-05-05T01:50:18.285Z,4.10
2019-05-05T01:54:16.993Z,3.60
2019-05-05T01:58:20.121Z,6.10
2019-05-05T02:02:21.956Z,4.47
2019-05-05T02:06:24.826Z,3.40
2019-05-05T02:10:27.295Z,4.03
2019-05-05T02:14:29.195Z,3.57
2019-05-05T02:18:31.050Z,5.07
2019-05-05T02:22:33.055Z,4.40
2019-05-05T02:26:35.425Z,3.30
2019-05-05T02:30:46.443Z,4.37
2019-05-05T02:34:56.316Z,4.13
2019-05-05T02:38:57.603Z,6.73
2019-05-05T02:42:59.639Z,4.83
2019-05-05T02:47:11.796Z,4.07
2019-05-05T02:51:15.378Z,4.63
2019-05-05T02:55:18.506Z,5.33
2019-05-05T02:59:45.938Z,3.70
2019-05-05T03:03:48.590Z,7.60
2019-05-05T03:07:50.766Z,5.83
2019-05-05T03:11:55.268Z,4.50
2019-05-05T03:16:14.487Z,5.53
2019-05-05T03:20:16.707Z,4.60
2019-05-05T03:24:18.781Z,5.87
2019-05-05T03:28:21.051Z,4.47
2019-05-05T03:32:25.479Z,5.80
2019-05-05T03:36:28.029Z,5.27
2019-05-05T03:40:34.289Z,3.80
2019-05-05T03:45:01.231Z,5.37
2019-05-05T03:49:04.798Z,6.60
2019-05-05T03:53:06.985Z,6.17
2019-05-05T03:57:09.332Z,6.10
2019-05-05T04:02:03.823Z,8.53
2019-05-05T04:06:06.735Z,2.93
2019-05-05T04:10:09.773Z,5.00
2019-05-05T04:14:14.293Z,3.03
2019-05-05T04:18:25.794Z,5.30
2019-05-05T04:22:27.924Z,3.07
2019-05-05T04:26:30.278Z,4.83
2019-05-05T04:30:33.835Z,2.50
2019-05-05T04:34:37.299Z,2.63
2019-05-05T04:38:39.513Z,4.83
2019-05-05T04:42:43.859Z,2.73
2019-05-05T04:46:48.302Z,4.00
2019-05-05T04:51:15.156Z,3.00
2019-05-05T04:55:17.016Z,1.73
2019-05-05T04:59:18.857Z,2.93
2019-05-05T05:03:54.200Z,3.70
2019-05-05T05:07:57.955Z,2.40
2019-05-05T05:11:59.338Z,3.03
2019-05-05T05:16:01.153Z,4.47
2019-05-05T05:20:03.738Z,2.40
2019-05-05T05:24:06.038Z,2.13
2019-05-05T05:28:07.902Z,2.50
2019-05-05T05:32:09.710Z,3.00
2019-05-05T05:36:11.629Z,2.73
2019-05-05T05:40:23.643Z,3.47
2019-05-05T05:44:34.117Z,2.23
2019-05-05T05:48:46.510Z,2.07
2019-05-05T05:52:48.411Z,2.50
2019-05-05T05:56:53.682Z,3.93
2019-05-05T06:00:56.722Z,3.63
2019-05-05T06:04:59.141Z,1.57
2019-05-05T06:09:01.054Z,3.17
2019-05-05T06:13:04.517Z,2.00
2019-05-05T06:17:06.420Z,2.27
2019-05-05T06:21:08.325Z,1.70
2019-05-05T06:25:10.445Z,2.17
2019-05-05T06:29:14.433Z,3.50
2019-05-05T06:33:16.264Z,1.53
2019-05-05T06:37:18.192Z,2.33
2019-05-05T06:41:38.971Z,2.83
2019-05-05T06:45:45.776Z,4.13
2019-05-05T06:49:47.635Z,1.60
2019-05-05T06:53:49.495Z,3.87
2019-05-05T06:57:51.369Z,1.90
2019-05-05T07:01:53.646Z,2.20
2019-05-05T07:05:55.679Z,2.63
2019-05-05T07:09:57.628Z,2.27
2019-05-05T07:13:59.498Z,2.07
2019-05-05T07:18:03.577Z,3.50
2019-05-05T07:22:04.928Z,1.40
2019-05-05T07:26:06.751Z,1.73
2019-05-05T07:30:08.924Z,3.60
2019-05-05T07:34:13.662Z,1.93
2019-05-05T07:38:15.658Z,1.40
2019-05-05T07:42:17.537Z,3.20
2019-05-05T07:46:19.424Z,2.13
2019-05-05T07:50:31.234Z,1.70
2019-05-05T07:54:25.010Z,1.23
2019-05-05T07:58:26.832Z,3.57
2019-05-05T08:02:28.762Z,2.43
2019-05-05T08:06:30.604Z,2.67
2019-05-05T08:10:34.340Z,2.60
2019-05-05T08:14:36.239Z,1.40
2019-05-05T08:18:55.861Z,1.20
2019-05-05T08:22:57.817Z,1.70
2019-05-05T08:27:17.348Z,1.73
2019-05-05T08:31:44.335Z,2.20
2019-05-05T08:35:46.226Z,1.83
2019-05-05T08:39:48.059Z,1.63
2019-05-05T08:43:50.980Z,2.87
2019-05-05T08:47:54.192Z,2.90
2019-05-05T08:51:56.191Z,3.47
2019-05-05T08:55:58.818Z,1.90
2019-05-05T09:00:00.764Z,7.23
2019-05-05T09:04:04.147Z,2.80
2019-05-05T09:08:06.282Z,2.77
2019-05-05T09:12:09.657Z,2.47
2019-05-05T09:16:14.480Z,1.37
2019-05-05T09:20:17.046Z,2.27
2019-05-05T09:24:34.156Z,2.60
2019-05-05T09:28:44.562Z,2.07
2019-05-05T09:32:47.788Z,2.43
2019-05-05T09:36:49.710Z,2.07
2019-05-05T09:40:54.272Z,2.90
2019-05-05T09:44:57.023Z,2.07
2019-05-05T09:48:59.044Z,2.90
2019-05-05T09:53:04.050Z,2.80
2019-05-05T09:57:06.360Z,2.17
2019-05-05T10:01:08.948Z,4.93
2019-05-05T10:05:11.253Z,2.73
2019-05-05T10:09:13.934Z,1.87
2019-05-05T10:13:16.275Z,1.33
2019-05-05T10:17:20.082Z,1.67
2019-05-05T10:21:24.464Z,2.13
2019-05-05T10:25:41.645Z,1.90
2019-05-05T10:29:47.572Z,0.87
2019-05-05T10:33:54.107Z,0.93
2019-05-05T10:37:57.411Z,1.70
2019-05-05T10:42:00.290Z,1.57
2019-05-05T10:46:03.891Z,4.50
2019-05-05T10:50:06.365Z,2.77
2019-05-05T10:54:08.671Z,3.07
2019-05-05T10:58:10.884Z,1.60
2019-05-05T11:02:14.013Z,1.27
2019-05-05T11:06:16.668Z,3.17
2019-05-05T11:10:24.681Z,2.57
2019-05-05T11:14:26.331Z,1.00
2019-05-05T11:18:29.003Z,3.13
2019-05-05T11:22:31.397Z,2.07
2019-05-05T11:26:33.987Z,0.80
2019-05-05T11:30:41.148Z,3.03
2019-05-05T11:34:44.261Z,1.57
2019-05-05T11:38:46.581Z,2.97
2019-05-05T11:42:48.809Z,1.57
2019-05-05T11:46:51.033Z,2.27
2019-05-05T11:50:54.030Z,1.90
2019-05-05T11:55:08.929Z,2.87
2019-05-05T11:59:03.750Z,1.77
2019-05-05T12:03:07.110Z,1.20
2019-05-05T12:07:09.426Z,5.67
2019-05-05T12:11:14.866Z,4.07
2019-05-05T12:15:16.779Z,2.73
2019-05-05T12:19:21.472Z,2.73
2019-05-05T12:23:24.844Z,1.80
2019-05-05T12:27:41.014Z,4.00
2019-05-05T12:31:46.838Z,2.20
2019-05-05T12:35:49.544Z,3.10
2019-05-05T12:39:51.755Z,2.20
2019-05-05T12:43:54.932Z,2.40
2019-05-05T12:48:18.433Z,1.17
2019-05-05T12:52:20.680Z,0.80
2019-05-05T12:56:23.816Z,0.77
2019-05-05T13:00:26.317Z,1.17
2019-05-05T13:04:28.602Z,1.23
2019-05-05T13:08:34.001Z,0.80
2019-05-05T13:12:36.522Z,1.17
2019-05-05T13:16:49.820Z,3.03
2019-05-05T13:20:50.917Z,1.87
2019-05-05T13:25:21.464Z,2.10
2019-05-05T13:29:24.636Z,0.60
2019-05-05T13:33:28.319Z,1.60
2019-05-05T13:37:30.472Z,0.90
2019-05-05T13:41:33.994Z,0.77
2019-05-05T13:45:55.931Z,0.97
2019-05-05T13:50:05.256Z,0.50
2019-05-05T13:54:07.430Z,0.90
2019-05-05T13:58:09.696Z,2.77
2019-05-05T14:02:13.752Z,0.73
2019-05-05T14:06:16.199Z,2.80
2019-05-05T14:10:18.850Z,0.70
2019-05-05T14:14:21.132Z,0.77
2019-05-05T14:18:24.724Z,1.30
2019-05-05T14:22:27.353Z,1.73
2019-05-05T14:26:32.098Z,3.03
2019-05-05T14:30:51.625Z,3.10
2019-05-05T14:35:04.046Z,1.20
2019-05-05T14:39:10.108Z,1.70
2019-05-05T14:43:16.772Z,2.70
2019-05-05T14:47:17.958Z,0.50
2019-05-05T14:51:20.030Z,4.70
2019-05-05T14:55:22.509Z,2.07
2019-05-05T14:59:24.799Z,0.77
2019-05-05T15:03:26.937Z,1.37
2019-05-05T15:07:38.547Z,1.10
2019-05-05T15:12:14.313Z,0.77
2019-05-05T15:16:16.605Z,3.03
2019-05-05T15:20:18.601Z,0.80
2019-05-05T15:24:20.962Z,1.00
2019-05-05T15:28:24.537Z,1.30
2019-05-05T15:32:26.694Z,0.90
2019-05-05T15:36:29.740Z,2.53
2019-05-05T15:40:33.346Z,1.13
2019-05-05T15:44:35.390Z,0.57
2019-05-05T15:48:51.158Z,1.57
2019-05-05T15:52:54.446Z,0.97
2019-05-05T15:57:05.386Z,0.70
2019-05-05T16:01:06.778Z,0.60
2019-05-05T16:05:10.208Z,1.50
2019-05-05T16:09:13.721Z,1.10
2019-05-05T16:13:15.734Z,0.40
2019-05-05T16:17:39.318Z,1.10
2019-05-05T16:22:10.921Z,0.80
2019-05-05T16:26:14.215Z,0.80
2019-05-05T16:30:20.707Z,0.50
2019-05-05T16:34:23.557Z,0.97
2019-05-05T16:38:25.770Z,0.73
2019-05-05T16:42:27.758Z,0.30
2019-05-05T16:46:29.678Z,0.50
2019-05-05T16:50:31.467Z,3.10
2019-05-05T16:54:41.621Z,0.50
2019-05-05T16:58:45.083Z,2.87
2019-05-05T17:02:47.208Z,5.17
2019-05-05T17:06:49.037Z,2.40
2019-05-05T17:10:50.962Z,1.37
2019-05-05T17:15:27.027Z,1.03
2019-05-05T17:19:37.698Z,1.40
2019-05-05T17:23:39.842Z,2.73
2019-05-05T17:27:48.727Z,1.10
2019-05-05T17:31:45.403Z,6.20
2019-05-05T17:35:47.264Z,3.13
2019-05-05T17:40:04.190Z,9.27
2019-05-05T17:44:09.930Z,1.80
2019-05-05T17:48:20.445Z,2.40
2019-05-05T17:52:40.825Z,1.47
2019-05-05T17:56:42.815Z,16.43
2019-05-05T18:00:54.334Z,4.37
2019-05-05T18:04:56.438Z,3.47
2019-05-05T18:09:10.353Z,2.83
2019-05-05T18:13:23.837Z,1.90
2019-05-05T18:17:27.499Z,1.87
2019-05-05T18:21:32.137Z,3.53
2019-05-05T18:25:34.681Z,1.97
2019-05-05T18:29:36.712Z,0.47
2019-05-05T18:33:38.715Z,1.73
2019-05-05T18:37:40.531Z,1.67
2019-05-05T18:41:48.292Z,0.97
2019-05-05T18:46:01.510Z,0.63
2019-05-05T18:50:04.119Z,0.67
2019-05-05T18:54:06.291Z,0.93
2019-05-05T18:58:08.422Z,1.33
2019-05-05T19:02:28.367Z,2.63
2019-05-05T19:06:56.370Z,0.57
2019-05-05T19:10:58.156Z,0.83
2019-05-05T19:15:00.062Z,1.03
2019-05-05T19:19:03.628Z,1.10
2019-05-05T19:23:06.828Z,1.43
2019-05-05T19:27:09.088Z,1.27
2019-05-05T19:31:13.895Z,1.93
2019-05-05T19:35:16.030Z,2.83
2019-05-05T19:39:17.984Z,3.93
2019-05-05T19:43:20.249Z,3.03
2019-05-05T19:47:24.610Z,1.57
2019-05-05T19:51:26.933Z,3.33
2019-05-05T19:55:28.870Z,0.97
2019-05-05T19:59:30.742Z,0.93
2019-05-05T20:03:34.720Z,0.90
2019-05-05T20:07:43.901Z,4.43
2019-05-05T20:11:45.985Z,2.80
2019-05-05T20:16:00.723Z,1.50
2019-05-05T20:20:04.487Z,3.70
2019-05-05T20:24:06.593Z,1.80
2019-05-05T20:28:09.102Z,2.83
2019-05-05T20:32:10.981Z,4.37
2019-05-05T20:36:18.921Z,2.87
2019-05-05T20:40:24.451Z,2.70
2019-05-05T20:44:26.541Z,3.30
2019-05-05T20:48:28.428Z,2.00
2019-05-05T20:52:30.325Z,1.93
2019-05-05T20:56:33.827Z,3.33
2019-05-05T21:00:35.882Z,2.73
2019-05-05T21:04:37.711Z,3.37
2019-05-05T21:08:39.597Z,4.70
2019-05-05T21:12:45.348Z,2.83
2019-05-05T21:16:46.109Z,2.07
2019-05-05T21:20:47.953Z,3.53
2019-05-05T21:24:49.861Z,5.50
2019-05-05T21:28:53.816Z,3.83
2019-05-05T21:32:55.877Z,1.60
2019-05-05T21:36:58.731Z,2.77
2019-05-05T21:41:00.908Z,1.43
2019-05-05T21:45:04.639Z,3.73
2019-05-05T21:49:06.608Z,3.43
2019-05-05T21:53:20.134Z,1.37
2019-05-05T21:57:39.470Z,4.37
2019-05-05T22:01:48.305Z,1.47
2019-05-05T22:05:45.295Z,2.77
2019-05-05T22:09:47.134Z,3.93
2019-05-05T22:13:48.988Z,2.33
2019-05-05T22:17:51.001Z,3.37
2019-05-05T22:21:58.312Z,4.57
2019-05-05T22:26:00.544Z,4.57
2019-05-05T22:30:10.104Z,3.40
2019-05-05T22:34:07.369Z,2.27
2019-05-05T22:38:09.662Z,3.53
2019-05-05T22:42:13.723Z,3.13
2019-05-05T22:46:16.982Z,5.37
2019-05-05T22:50:19.205Z,1.30
2019-05-05T22:54:21.596Z,2.43
2019-05-05T22:58:24.156Z,2.70
2019-05-05T23:02:31.248Z,4.87
2019-05-05T23:06:33.498Z,3.47
2019-05-05T23:10:36.252Z,3.40
2019-05-05T23:14:38.497Z,4.63
2019-05-05T23:18:40.831Z,3.53
2019-05-05T23:22:51.803Z,3.17
2019-05-05T23:26:54.964Z,5.70
2019-05-05T23:30:57.418Z,2.77
2019-05-05T23:34:59.726Z,3.57
2019-05-05T23:39:03.907Z,6.57
2019-05-05T23:43:06.218Z,4.00
2019-05-05T23:47:08.488Z,4.67
2019-05-05T23:51:10.696Z,9.50
2019-05-05T23:55:14.293Z,27.83
2019-05-05T23:59:16.684Z,38.93
